Time;durP1;ratioP1;P1;durP2;ratioP2;P2;SDS_P1;SDS_P2;PMS_P1;PMS_P2;Temp;Humidity;BMP_temperature;BMP_pressure;BME280_temperature;BME280_humidity;BME280_pressure;Samples;Min_cycle;Max_cycle;Signal;HPM_P1;HPM_P2
2022/01/30 00:01:41;;;;;;;;;4.75;4.75;;;;;10.32;79.24;102577.94;5094295;27;45569;-78
2022/01/30 00:04:06;;;;;;;;;4.25;4.25;;;;;10.37;79.17;102586.13;5095129;27;47228;-78
2022/01/30 00:06:32;;;;;;;;;4.67;4.00;;;;;10.38;79.17;102597.56;5105551;27;45271;-78
2022/01/30 00:08:57;;;;;;;;;4.50;4.00;;;;;10.47;79.27;102619.19;5100055;27;45077;-78
2022/01/30 00:11:23;;;;;;;;;6.00;5.00;;;;;10.46;79.46;102615.66;5107202;27;45125;-79
2022/01/30 00:13:49;;;;;;;;;10.75;10.75;;;;;10.39;79.18;102589.75;5112627;27;45819;-79
2022/01/30 00:16:19;;;;;;;;;8.50;7.00;;;;;10.54;78.87;102610.88;5097498;27;44854;-78
2022/01/30 00:24:27;;;;;;;;;3.50;3.25;;;;;10.41;79.61;102603.94;5098418;27;45093;-80
2022/01/30 00:26:41;;;;;;;;;4.50;4.50;;;;;10.24;79.21;102568.66;5099727;27;45172;-79
2022/01/30 00:29:07;;;;;;;;;4.25;4.00;;;;;10.32;79.38;102577.03;5098079;27;45752;-78
2022/01/30 00:31:34;;;;;;;;;5.00;5.00;;;;;10.58;79.41;102618.16;5116189;27;45378;-82
2022/01/30 00:34:01;;;;;;;;;5.00;4.00;;;;;10.32;79.35;102577.03;5130646;27;46295;-78
2022/01/30 00:36:29;;;;;;;;;4.00;4.00;;;;;10.39;79.38;102591.47;5103886;27;46094;-78
2022/01/30 00:38:55;;;;;;;;;3.75;3.75;;;;;10.41;79.50;102588.16;5107758;27;45118;-83
2022/01/30 00:41:20;;;;;;;;;3.25;3.00;;;;;10.52;79.51;102609.88;5096215;27;45039;-78
2022/01/30 00:43:45;;;;;;;;;4.25;4.25;;;;;10.52;79.58;102596.72;5110869;27;47535;-78
2022/01/30 00:46:11;;;;;;;;;4.50;4.50;;;;;10.30;79.75;102557.66;5111896;27;45027;-78
2022/01/30 00:48:36;;;;;;;;;4.50;4.50;;;;;10.34;79.70;102564.91;5110393;27;45102;-78
2022/01/30 00:51:01;;;;;;;;;5.00;4.25;;;;;10.41;79.68;102582.00;5105946;27;45394;-78
2022/01/30 00:53:27;;;;;;;;;6.00;5.00;;;;;10.35;79.68;102560.56;5110797;27;45579;-77
2022/01/30 00:55:52;;;;;;;;;4.00;3.75;;;;;10.26;79.72;102546.03;5099355;27;45271;-78
2022/01/30 00:58:17;;;;;;;;;5.75;5.75;;;;;10.32;79.73;102563.91;5123490;27;45455;-78
2022/01/30 01:00:43;;;;;;;;;5.75;5.75;;;;;10.14;79.57;102529.41;5110375;27;45361;-79
2022/01/30 01:03:09;;;;;;;;;4.75;4.75;;;;;10.45;79.76;102587.53;5093480;27;45931;-78
2022/01/30 01:05:36;;;;;;;;;5.00;5.00;;;;;10.37;79.77;102579.97;5118171;27;45240;-78
2022/01/30 01:08:11;;;;;;;;;6.00;6.00;;;;;10.34;79.79;102567.53;5106229;27;45339;-78
2022/01/30 01:10:44;;;;;;;;;5.25;5.00;;;;;10.30;79.82;102562.91;5091952;28;45061;-78
2022/01/30 01:24:07;;;;;;;;;5.00;4.00;;;;;10.17;79.56;102557.63;5091285;27;45093;-78
2022/01/30 01:26:34;;;;;;;;;7.25;6.75;;;;;10.04;79.46;102554.16;5099470;27;45420;-78
2022/01/30 01:29:00;;;;;;;;;5.75;5.00;;;;;9.80;79.71;102529.84;5098112;27;45027;-78
2022/01/30 01:31:25;;;;;;;;;4.25;4.25;;;;;9.72;79.89;102525.81;5108501;27;45143;-86
2022/01/30 01:36:36;;;;;;;;;4.25;3.25;;;;;9.72;80.29;102549.44;5092460;27;45032;-78
2022/01/30 01:39:02;;;;;;;;;5.00;4.75;;;;;9.71;80.54;102545.00;5096077;27;45079;-78
2022/01/30 01:41:29;;;;;;;;;5.50;5.00;;;;;9.55;79.92;102529.00;5095361;27;45057;-78
2022/01/30 01:43:58;;;;;;;;;5.50;5.00;;;;;9.55;80.01;102529.91;5111503;27;45687;-78
2022/01/30 01:46:35;;;;;;;;;6.25;5.25;;;;;9.57;80.16;102540.53;5107431;27;45053;-78
2022/01/30 01:49:00;;;;;;;;;8.00;7.50;;;;;9.46;80.22;102528.41;5101142;27;44974;-78
2022/01/30 01:51:30;;;;;;;;;7.00;7.00;;;;;9.47;80.38;102546.88;5105131;27;45418;-79
2022/01/30 01:53:58;;;;;;;;;6.75;6.75;;;;;9.61;80.66;102557.41;5089894;28;47380;-78
2022/01/30 01:56:24;;;;;;;;;9.00;9.00;;;;;9.58;80.77;102560.72;5093647;27;45137;-79
2022/01/30 01:58:50;;;;;;;;;11.25;9.75;;;;;9.40;81.00;102533.22;5111418;27;45324;-78
2022/01/30 02:01:16;;;;;;;;;9.00;8.25;;;;;9.39;81.00;102545.44;5094764;27;44966;-78
2022/01/30 02:03:43;;;;;;;;;11.00;9.75;;;;;9.55;81.09;102563.13;5095476;27;45185;-78
2022/01/30 02:06:12;;;;;;;;;9.25;8.25;;;;;9.54;80.89;102570.09;5103520;27;45745;-79
2022/01/30 02:08:42;;;;;;;;;9.00;8.00;;;;;9.38;80.84;102532.22;5129906;27;45197;-78
2022/01/30 02:24:20;;;;;;;;;9.25;9.25;;;;;9.78;81.07;102560.34;5111411;27;45370;-78
2022/01/30 02:26:47;;;;;;;;;11.25;11.00;;;;;9.74;81.11;102534.69;5093076;27;45478;-79
2022/01/30 02:29:13;;;;;;;;;10.00;9.50;;;;;9.63;80.94;102496.31;5096039;27;46431;-78
2022/01/30 02:31:40;;;;;;;;;12.00;10.75;;;;;9.81;80.96;102513.28;5095511;27;45114;-78
2022/01/30 02:34:07;;;;;;;;;10.00;9.00;;;;;9.90;80.59;102531.38;5092696;28;46036;-78
2022/01/30 02:36:32;;;;;;;;;11.50;10.50;;;;;9.75;80.88;102509.31;5110726;27;45081;-78
2022/01/30 02:39:00;;;;;;;;;11.75;11.25;;;;;10.00;80.57;102540.72;5094387;28;44971;-78
2022/01/30 02:41:25;;;;;;;;;11.00;11.00;;;;;9.87;80.49;102512.78;5095038;27;45400;-78
2022/01/30 02:46:50;;;;;;;;;10.00;10.00;;;;;9.96;80.45;102523.88;5102672;27;45149;-78
2022/01/30 02:51:53;;;;;;;;;9.25;9.25;;;;;10.08;80.40;102532.56;5101100;27;45403;-78
2022/01/30 02:54:19;;;;;;;;;10.75;10.50;;;;;10.07;80.24;102522.84;5108852;27;46384;-80
2022/01/30 02:56:45;;;;;;;;;12.75;11.50;;;;;10.19;80.21;102543.75;5106492;27;44960;-79
2022/01/30 02:59:11;;;;;;;;;8.50;8.50;;;;;10.01;79.94;102524.19;5093298;27;45375;-78
2022/01/30 03:01:37;;;;;;;;;11.50;11.00;;;;;10.06;80.05;102530.66;5103362;27;45225;-78
2022/01/30 03:04:03;;;;;;;;;9.00;9.00;;;;;9.81;80.16;102494.00;5093695;27;45178;-78
2022/01/30 03:06:28;;;;;;;;;8.00;7.75;;;;;10.16;80.00;102543.56;5099134;27;45368;-78
2022/01/30 03:08:53;;;;;;;;;9.25;8.00;;;;;10.04;79.82;102501.63;5112009;27;45207;-78
2022/01/30 03:11:19;;;;;;;;;9.00;9.00;;;;;10.15;79.77;102533.88;5111933;27;44837;-78
2022/01/30 03:13:45;;;;;;;;;7.75;7.25;;;;;10.21;79.98;102557.91;5113916;27;45809;-78
2022/01/30 03:16:11;;;;;;;;;9.50;9.50;;;;;10.20;79.92;102536.81;5100490;27;45239;-78
2022/01/30 03:18:36;;;;;;;;;9.75;8.75;;;;;10.11;79.74;102521.34;5114159;27;45502;-78
2022/01/30 03:21:02;;;;;;;;;9.75;8.50;;;;;10.27;79.79;102542.56;5103475;27;45052;-78
2022/01/30 03:23:28;;;;;;;;;11.25;8.50;;;;;10.09;79.59;102515.06;5107672;27;45781;-78
2022/01/30 03:25:57;;;;;;;;;8.25;8.25;;;;;10.03;79.47;102507.69;5099354;27;45140;-78
2022/01/30 03:28:24;;;;;;;;;9.00;7.50;;;;;10.06;79.40;102504.38;5109659;27;45183;-78
2022/01/30 03:30:53;;;;;;;;;8.75;7.25;;;;;10.35;79.39;102543.09;5101036;27;44983;-78
2022/01/30 03:33:19;;;;;;;;;9.25;7.75;;;;;10.38;79.38;102545.88;5099741;27;46156;-79
2022/01/30 03:35:45;;;;;;;;;9.50;9.00;;;;;10.07;79.25;102498.31;5096220;27;45445;-78
2022/01/30 03:38:10;;;;;;;;;12.00;8.00;;;;;10.26;79.12;102530.25;5094074;27;45134;-78
2022/01/30 03:40:36;;;;;;;;;10.00;9.00;;;;;10.28;79.17;102530.34;5106460;27;45323;-78
2022/01/30 03:43:03;;;;;;;;;5.00;5.00;;;;;10.41;78.71;102545.19;5096682;27;45682;-78
2022/01/30 03:45:28;;;;;;;;;8.50;8.00;;;;;10.38;79.06;102544.97;5102558;27;45310;-79
2022/01/30 03:47:56;;;;;;;;;9.00;8.33;;;;;10.43;78.96;102552.34;5110265;27;44949;-81
2022/01/30 03:50:22;;;;;;;;;10.75;8.25;;;;;10.46;78.68;102546.41;5111197;27;45042;-78
2022/01/30 03:52:48;;;;;;;;;9.50;8.75;;;;;10.48;78.80;102542.13;5108445;27;47065;-78
2022/01/30 03:55:13;;;;;;;;;9.25;7.50;;;;;10.33;78.50;102515.78;5094694;27;45380;-78
2022/01/30 03:57:38;;;;;;;;;9.75;5.75;;;;;10.33;78.65;102519.31;5112487;27;44912;-78
2022/01/30 04:00:06;;;;;;;;;9.25;8.75;;;;;10.31;78.50;102505.19;5091533;28;45052;-78
2022/01/30 04:02:31;;;;;;;;;8.00;7.25;;;;;10.36;78.39;102525.59;5110182;27;45251;-78
2022/01/30 04:04:56;;;;;;;;;11.25;8.00;;;;;10.32;78.29;102517.50;5106093;27;45348;-78
2022/01/30 04:07:23;;;;;;;;;6.50;5.50;;;;;10.34;78.35;102525.47;5105729;27;45165;-78
2022/01/30 04:09:49;;;;;;;;;10.00;8.25;;;;;10.48;78.19;102550.00;5108538;27;44980;-78
2022/01/30 04:12:15;;;;;;;;;8.00;8.00;;;;;10.31;78.18;102523.56;5091403;27;47044;-78
2022/01/30 04:14:41;;;;;;;;;9.00;8.75;;;;;10.28;78.04;102520.72;5093766;27;45133;-78
2022/01/30 04:17:09;;;;;;;;;8.00;7.50;;;;;10.28;78.30;102527.72;5102849;27;45010;-78
2022/01/30 04:19:34;;;;;;;;;9.00;9.00;;;;;10.21;78.07;102515.88;5106863;27;45126;-78
2022/01/30 04:22:00;;;;;;;;;8.25;6.50;;;;;10.28;78.03;102538.22;5110347;27;45328;-78
2022/01/30 04:24:25;;;;;;;;;13.50;9.50;;;;;10.30;78.15;102542.78;5109634;27;44966;-81
2022/01/30 04:26:50;;;;;;;;;8.33;7.33;;;;;10.26;78.27;102540.75;5107569;27;46935;-78
2022/01/30 04:29:16;;;;;;;;;9.67;9.00;;;;;10.10;77.98;102516.91;5125251;27;45155;-78
2022/01/30 04:31:42;;;;;;;;;7.50;6.25;;;;;10.23;78.09;102560.63;5131695;27;46329;-78
2022/01/30 04:34:09;;;;;;;;;8.25;8.25;;;;;10.06;78.32;102534.19;5110565;27;45067;-79
2022/01/30 04:36:40;;;;;;;;;10.00;9.50;;;;;10.16;78.21;102540.94;5110213;27;45435;-78
2022/01/30 05:00:29;;;;;;;;;4.25;3.50;;;;;10.17;73.37;102550.63;5092359;28;44974;-78
2022/01/30 05:07:48;;;;;;;;;4.75;4.00;;;;;10.12;72.52;102559.94;5092001;27;45188;-78
2022/01/30 05:10:14;;;;;;;;;4.00;4.00;;;;;9.93;72.66;102535.91;5090359;27;45241;-78
2022/01/30 05:13:00;;;;;;;;;4.75;3.50;;;;;10.18;72.40;102583.97;5091662;27;45888;-78
2022/01/30 05:15:28;;;;;;;;;4.00;4.00;;;;;9.98;71.55;102540.63;5111078;27;45469;-78
2022/01/30 05:17:53;;;;;;;;;8.25;6.25;;;;;10.09;71.50;102559.72;5101896;27;46955;-78
2022/01/30 05:20:20;;;;;;;;;5.25;5.00;;;;;10.22;71.18;102590.34;5110255;27;45000;-78
2022/01/30 05:22:46;;;;;;;;;3.00;3.00;;;;;10.19;70.56;102584.88;5111939;27;46404;-78
2022/01/30 05:25:12;;;;;;;;;4.25;4.00;;;;;10.17;70.11;102576.91;5107028;27;45304;-80
2022/01/30 05:27:37;;;;;;;;;2.50;2.25;;;;;10.20;69.83;102592.00;5111131;27;45202;-87
2022/01/30 05:30:05;;;;;;;;;3.75;2.25;;;;;9.96;69.60;102551.88;5110671;27;45164;-78
2022/01/30 05:32:30;;;;;;;;;3.00;2.00;;;;;10.15;69.59;102593.38;5100227;27;45157;-81
2022/01/30 05:34:56;;;;;;;;;4.00;3.00;;;;;10.16;69.72;102589.97;5100261;27;45156;-84
2022/01/30 05:37:22;;;;;;;;;2.25;2.00;;;;;10.14;69.41;102581.06;5101621;27;45542;-86
2022/01/30 05:39:48;;;;;;;;;2.00;2.00;;;;;10.13;69.40;102585.41;5103915;27;45066;-79
2022/01/30 05:42:14;;;;;;;;;2.50;2.00;;;;;9.96;69.23;102544.00;5097961;27;47127;-81
2022/01/30 05:44:50;;;;;;;;;3.00;2.25;;;;;10.16;69.05;102589.97;5101301;27;45120;-83
2022/01/30 05:47:24;;;;;;;;;3.25;2.00;;;;;10.16;68.52;102595.22;5111441;27;45215;-78
2022/01/30 05:49:50;;;;;;;;;2.75;2.25;;;;;10.19;68.89;102601.56;5102159;27;45105;-78
2022/01/30 05:52:15;;;;;;;;;3.25;2.50;;;;;10.07;68.84;102591.16;5105302;27;45774;-83
2022/01/30 05:54:42;;;;;;;;;3.75;3.75;;;;;10.15;69.25;102602.19;5110481;27;45104;-79
2022/01/30 05:57:07;;;;;;;;;4.25;3.00;;;;;10.01;68.85;102579.34;5098725;27;45267;-78
2022/01/30 05:59:32;;;;;;;;;3.50;2.75;;;;;10.07;68.73;102596.41;5102779;27;44932;-78
2022/01/30 06:01:58;;;;;;;;;4.50;2.25;;;;;9.84;68.35;102565.09;5109959;27;46000;-84
2022/01/30 06:04:23;;;;;;;;;2.75;2.00;;;;;9.95;68.73;102594.69;5094359;27;46537;-78
2022/01/30 06:06:51;;;;;;;;;3.50;2.50;;;;;9.93;68.57;102591.97;5104102;27;45177;-78
2022/01/30 06:11:43;;;;;;;;;3.50;3.50;;;;;9.86;68.67;102588.84;5108244;27;45808;-80
2022/01/30 06:14:09;;;;;;;;;4.00;4.00;;;;;9.83;68.41;102595.69;5111640;27;45216;-78
2022/01/30 06:16:34;;;;;;;;;4.50;4.00;;;;;9.71;68.27;102579.13;5110565;27;45439;-78
2022/01/30 06:19:01;;;;;;;;;6.00;3.00;;;;;9.78;68.40;102598.81;5109230;27;45133;-78
2022/01/30 06:21:27;;;;;;;;;4.00;4.00;;;;;9.79;68.43;102606.78;5104089;27;45628;-78
2022/01/30 06:23:52;;;;;;;;;4.00;3.50;;;;;9.53;69.23;102576.16;5097357;27;45096;-78
2022/01/30 06:26:18;;;;;;;;;5.75;3.00;;;;;9.62;68.86;102604.75;5109561;27;45170;-81
2022/01/30 06:28:43;;;;;;;;;2.67;2.00;;;;;9.76;69.13;102632.88;5103344;27;45397;-77
2022/01/30 06:31:08;;;;;;;;;3.00;3.00;;;;;9.58;69.39;102607.97;5107673;27;46046;-79
2022/01/30 06:33:34;;;;;;;;;2.25;2.00;;;;;9.47;69.77;102601.09;5102746;27;45133;-77
2022/01/30 06:35:59;;;;;;;;;5.00;4.00;;;;;9.46;69.50;102617.63;5108749;27;45199;-78
2022/01/30 06:38:24;;;;;;;;;8.00;8.00;;;;;9.51;70.02;102640.78;5104456;27;45337;-78
2022/01/30 06:40:49;;;;;;;;;7.75;6.50;;;;;9.29;70.03;102609.50;5108485;27;45442;-79
2022/01/30 06:43:15;;;;;;;;;17.00;13.33;;;;;9.26;70.24;102608.34;5108823;27;45059;-78
2022/01/30 06:45:42;;;;;;;;;16.33;14.00;;;;;9.25;70.38;102623.19;5102618;27;45062;-79
2022/01/30 06:48:08;;;;;;;;;21.75;17.00;;;;;9.21;69.73;102626.44;5106588;27;45113;-78
2022/01/30 06:50:33;;;;;;;;;22.75;17.50;;;;;9.22;70.26;102630.88;5112798;27;45755;-81
2022/01/30 06:52:58;;;;;;;;;20.33;16.67;;;;;9.09;70.63;102612.44;5102309;27;45185;-85
2022/01/30 06:55:24;;;;;;;;;16.50;13.00;;;;;9.03;71.06;102606.75;5110858;27;45172;-79
2022/01/30 06:57:49;;;;;;;;;11.25;7.25;;;;;9.02;71.04;102608.47;5100906;27;45105;-78
2022/01/30 07:00:15;;;;;;;;;8.50;7.50;;;;;9.14;70.87;102637.28;5111309;27;46653;-78
2022/01/30 07:02:40;;;;;;;;;7.00;6.00;;;;;9.17;71.01;102647.09;5110316;27;45210;-78
2022/01/30 07:05:06;;;;;;;;;8.50;6.00;;;;;8.94;70.95;102609.63;5101085;27;44985;-78
2022/01/30 07:07:31;;;;;;;;;4.25;4.00;;;;;9.04;71.25;102630.47;5114293;27;45154;-79
2022/01/30 07:09:57;;;;;;;;;8.00;8.00;;;;;8.94;71.33;102634.94;5113030;27;45499;-79
2022/01/30 07:12:22;;;;;;;;;6.00;4.50;;;;;8.83;71.55;102633.28;5114600;27;45262;-78
2022/01/30 07:14:48;;;;;;;;;4.00;4.00;;;;;8.72;71.46;102622.03;5106680;27;45094;-81
2022/01/30 07:17:13;;;;;;;;;4.25;4.00;;;;;8.63;71.70;102622.28;5108093;27;45386;-83
2022/01/30 07:19:38;;;;;;;;;3.75;2.50;;;;;8.56;71.64;102619.97;5103146;27;45299;-89
2022/01/30 07:22:04;;;;;;;;;5.00;4.00;;;;;8.53;71.88;102620.69;5114242;27;44988;-84
2022/01/30 07:24:29;;;;;;;;;4.00;2.33;;;;;8.47;71.92;102628.13;5113167;27;45119;-82
2022/01/30 07:26:54;;;;;;;;;7.50;5.00;;;;;8.52;71.97;102654.63;5108234;27;45252;-78
2022/01/30 07:29:20;;;;;;;;;5.25;3.25;;;;;8.32;72.13;102636.50;5109829;27;45187;-78
2022/01/30 07:31:45;;;;;;;;;2.50;2.00;;;;;8.39;72.40;102657.16;5104184;27;45012;-78
2022/01/30 07:34:11;;;;;;;;;4.25;3.50;;;;;8.37;72.35;102658.75;5112160;27;44964;-79
2022/01/30 07:36:37;;;;;;;;;8.00;4.75;;;;;8.05;72.05;102606.56;5112684;27;45086;-79
2022/01/30 07:39:06;;;;;;;;;8.00;6.75;;;;;8.41;72.47;102671.28;5111833;27;45427;-80
2022/01/30 07:41:32;;;;;;;;;2.50;2.50;;;;;8.32;72.44;102654.84;5109628;27;45403;-80
2022/01/30 07:43:57;;;;;;;;;5.25;4.75;;;;;8.38;72.26;102679.84;5110508;27;45268;-85
2022/01/30 07:46:23;;;;;;;;;8.00;8.00;;;;;8.26;72.76;102671.00;5117278;27;45038;-88
2022/01/30 07:48:48;;;;;;;;;12.00;12.00;;;;;8.27;72.60;102688.53;5113997;27;45412;-83
2022/01/30 07:51:13;;;;;;;;;7.75;7.75;;;;;8.23;72.60;102682.19;5103955;27;45378;-79
2022/01/30 07:53:39;;;;;;;;;9.00;8.50;;;;;8.29;72.42;102694.84;5103376;27;45144;-82
2022/01/30 07:56:04;;;;;;;;;11.25;8.25;;;;;8.11;72.37;102662.91;5105181;27;45138;-84
2022/01/30 07:58:29;;;;;;;;;7.00;4.75;;;;;8.22;72.18;102675.09;5105330;27;45552;-84
2022/01/30 08:00:55;;;;;;;;;3.00;3.00;;;;;8.26;72.19;102684.09;5092213;27;45889;-79
2022/01/30 08:03:20;;;;;;;;;7.50;7.00;;;;;8.31;72.48;102692.31;5102532;27;45185;-82
2022/01/30 08:05:46;;;;;;;;;6.25;6.00;;;;;8.45;72.07;102717.88;5101899;27;45267;-79
2022/01/30 08:08:11;;;;;;;;;3.00;3.00;;;;;8.45;71.38;102712.63;5104294;27;47317;-83
2022/01/30 08:10:36;;;;;;;;;3.25;3.25;;;;;8.28;71.10;102683.44;5100490;27;45438;-80
2022/01/30 08:13:02;;;;;;;;;4.00;4.00;;;;;8.37;71.04;102698.03;5100730;27;45272;-78
2022/01/30 08:15:27;;;;;;;;;4.00;3.75;;;;;8.38;71.10;102705.13;5100236;27;45229;-85
2022/01/30 08:17:53;;;;;;;;;4.75;3.25;;;;;8.45;70.44;102720.50;5099012;27;47274;-78
2022/01/30 08:20:21;;;;;;;;;4.00;3.50;;;;;8.53;70.33;102725.53;5098546;27;45119;-81
2022/01/30 08:22:50;;;;;;;;;4.75;4.50;;;;;8.53;70.83;102725.53;5101239;27;46008;-82
2022/01/30 08:25:20;;;;;;;;;5.00;4.25;;;;;8.46;70.79;102712.75;5100277;27;46829;-79
2022/01/30 08:27:46;;;;;;;;;2.50;2.00;;;;;8.52;70.83;102714.91;5101149;27;45946;-78
2022/01/30 08:30:12;;;;;;;;;5.50;5.25;;;;;8.39;71.52;102701.69;5095703;27;45411;-78
2022/01/30 08:32:39;;;;;;;;;8.00;5.50;;;;;8.43;71.73;102716.88;5087282;27;45733;-79
2022/01/30 08:35:05;;;;;;;;;5.00;5.00;;;;;8.53;70.99;102727.22;5095008;27;45426;-80
2022/01/30 08:37:31;;;;;;;;;3.75;3.00;;;;;8.41;71.70;102694.84;5095240;27;47215;-81
2022/01/30 08:39:56;;;;;;;;;4.00;4.00;;;;;8.48;71.51;102699.78;5085036;27;45735;-78
2022/01/30 08:42:21;;;;;;;;;4.00;3.33;;;;;8.30;71.78;102669.53;5079665;27;45690;-82
2022/01/30 08:44:47;;;;;;;;;4.67;4.00;;;;;8.36;72.22;102678.78;5086363;27;45540;-80
2022/01/30 08:47:12;;;;;;;;;9.00;8.75;;;;;8.28;71.95;102659.88;5080601;27;47112;-79
2022/01/30 08:49:38;;;;;;;;;10.75;9.00;;;;;8.46;72.15;102697.00;5090665;27;46168;-79
2022/01/30 08:52:03;;;;;;;;;5.25;5.25;;;;;8.52;72.09;102707.97;5087497;27;45499;-78
2022/01/30 08:54:29;;;;;;;;;7.00;6.00;;;;;8.48;72.23;102687.56;5091370;27;45474;-78
2022/01/30 08:56:54;;;;;;;;;7.00;4.50;;;;;8.65;72.15;102720.25;5095651;27;47807;-86
2022/01/30 08:59:19;;;;;;;;;8.25;6.50;;;;;8.68;72.04;102715.25;5086895;27;46063;-79
2022/01/30 09:01:45;;;;;;;;;6.75;4.00;;;;;8.69;70.98;102709.22;5098030;27;45540;-79
2022/01/30 09:04:11;;;;;;;;;3.00;2.25;;;;;8.61;70.33;102691.09;5095986;27;45346;-86
2022/01/30 09:06:38;;;;;;;;;7.25;4.00;;;;;8.78;69.93;102717.75;5085276;27;46338;-83
2022/01/30 09:09:04;;;;;;;;;9.00;7.25;;;;;8.90;69.56;102727.31;5085723;27;45654;-81
2022/01/30 09:11:29;;;;;;;;;7.25;6.50;;;;;8.67;69.52;102678.44;5079620;27;45452;-79
2022/01/30 09:13:55;;;;;;;;;7.75;6.50;;;;;8.91;69.30;102726.50;5085854;27;45627;-80
2022/01/30 09:16:20;;;;;;;;;2.50;2.50;;;;;9.00;68.70;102735.03;5084364;27;48001;-80
2022/01/30 09:18:45;;;;;;;;;5.25;4.00;;;;;9.03;68.79;102735.28;5085746;27;45552;-80
2022/01/30 09:21:11;;;;;;;;;3.00;2.25;;;;;8.98;68.51;102715.69;5082363;27;45877;-83
2022/01/30 09:23:37;;;;;;;;;5.75;5.50;;;;;8.70;68.47;102658.59;5085269;27;45706;-79
2022/01/30 09:26:02;;;;;;;;;4.25;3.00;;;;;8.98;68.51;102699.94;5085379;27;46258;-80
2022/01/30 09:28:27;;;;;;;;;5.25;3.25;;;;;9.01;68.47;102705.38;5085349;27;45666;-81
2022/01/30 09:30:53;;;;;;;;;6.25;5.25;;;;;8.99;68.14;102696.50;5082440;27;45668;-82
2022/01/30 09:33:19;;;;;;;;;3.50;3.50;;;;;9.09;68.17;102719.06;5084474;27;45397;-82
2022/01/30 09:35:44;;;;;;;;;5.75;3.50;;;;;8.88;67.89;102664.28;5085868;27;46530;-84
2022/01/30 09:38:09;;;;;;;;;3.00;3.00;;;;;9.00;67.83;102694.00;5085035;27;45570;-82
2022/01/30 09:40:35;;;;;;;;;4.00;4.00;;;;;9.24;67.59;102728.03;5083748;27;46340;-81
2022/01/30 09:43:01;;;;;;;;;7.75;5.75;;;;;9.12;67.24;102703.56;5083349;27;46454;-85
2022/01/30 09:45:28;;;;;;;;;7.00;6.50;;;;;9.22;67.12;102727.94;5095053;27;48483;-81
2022/01/30 09:47:55;;;;;;;;;3.75;3.75;;;;;9.21;66.92;102709.44;5094467;27;45608;-80
2022/01/30 09:50:21;;;;;;;;;5.00;5.00;;;;;9.33;66.91;102731.31;5088239;27;45428;-81
2022/01/30 09:52:47;;;;;;;;;4.00;3.25;;;;;9.22;66.94;102711.28;5096371;27;45441;-81
2022/01/30 09:55:13;;;;;;;;;4.25;4.25;;;;;9.23;67.13;102707.84;5093699;27;45396;-80
2022/01/30 09:57:39;;;;;;;;;7.50;7.00;;;;;9.16;66.81;102693.41;5093479;27;45419;-81
2022/01/30 10:00:07;;;;;;;;;7.50;6.50;;;;;9.25;66.63;102707.16;5092363;27;45450;-80
2022/01/30 10:02:32;;;;;;;;;5.00;5.00;;;;;9.41;66.17;102721.34;5093655;27;45545;-81
2022/01/30 10:04:58;;;;;;;;;7.00;5.50;;;;;9.51;66.30;102742.22;5093662;27;45334;-80
2022/01/30 10:07:41;;;;;;;;;9.75;8.75;;;;;9.26;66.25;102690.63;5093262;27;45654;-81
2022/01/30 10:10:09;;;;;;;;;4.75;4.00;;;;;9.52;65.57;102729.22;5094047;27;45391;-81
2022/01/30 10:12:34;;;;;;;;;5.00;3.75;;;;;9.54;65.81;102731.94;5093273;27;45386;-81
2022/01/30 10:15:11;;;;;;;;;6.75;4.50;;;;;9.39;65.50;102694.09;5093356;27;46070;-80
2022/01/30 10:17:46;;;;;;;;;5.00;4.00;;;;;9.47;65.13;102706.97;5093279;27;45460;-81
2022/01/30 10:20:15;;;;;;;;;4.00;3.75;;;;;9.49;65.28;102701.81;5093445;27;45476;-81
2022/01/30 10:22:49;;;;;;;;;2.75;2.25;;;;;9.73;64.72;102734.13;5094334;27;45595;-81
2022/01/30 10:25:18;;;;;;;;;3.25;3.00;;;;;9.62;64.77;102709.75;5095524;27;47167;-81
2022/01/30 10:27:43;;;;;;;;;4.50;4.50;;;;;9.69;64.93;102719.88;5096522;27;45324;-81
2022/01/30 10:30:09;;;;;;;;;7.00;5.00;;;;;9.69;64.45;102713.72;5095624;27;45323;-81
2022/01/30 10:32:34;;;;;;;;;4.00;4.00;;;;;9.56;64.18;102693.59;5096826;27;45455;-81
2022/01/30 10:35:08;;;;;;;;;3.75;3.00;;;;;9.64;64.49;102702.88;5096885;27;45429;-80
2022/01/30 10:37:36;;;;;;;;;5.00;4.50;;;;;9.78;64.60;102720.53;5096754;27;45317;-81
2022/01/30 10:40:29;;;;;;;;;6.75;5.00;;;;;9.91;64.20;102732.78;5095245;27;45298;-81
2022/01/30 10:42:54;;;;;;;;;4.25;3.25;;;;;9.97;65.04;102729.69;5095136;27;45623;-80
2022/01/30 10:45:32;;;;;;;;;8.00;5.00;;;;;9.94;64.74;102709.34;5096356;27;46777;-81
2022/01/30 10:48:12;;;;;;;;;8.25;7.75;;;;;9.87;64.03;102694.00;5095251;27;45531;-81
2022/01/30 10:50:43;;;;;;;;;6.25;5.25;;;;;10.07;64.51;102719.00;5098216;27;45369;-81
2022/01/30 10:53:17;;;;;;;;;6.75;5.00;;;;;10.14;63.72;102731.72;5097261;27;45418;-82
2022/01/30 10:55:44;;;;;;;;;10.50;7.75;;;;;10.16;63.86;102724.88;5089705;27;48650;-81
2022/01/30 10:58:13;;;;;;;;;4.00;3.00;;;;;10.19;63.33;102717.19;5074271;27;45749;-81
2022/01/30 11:00:46;;;;;;;;;4.00;3.25;;;;;10.23;63.68;102716.59;5074385;27;45493;-81
2022/01/30 11:03:45;;;;;;;;;4.50;4.50;;;;;10.21;63.32;102707.69;5095250;27;45540;-82
2022/01/30 11:06:13;;;;;;;;;7.75;7.00;;;;;10.04;62.99;102671.47;5094103;27;46348;-82
2022/01/30 11:08:41;;;;;;;;;7.00;6.25;;;;;10.32;63.00;102719.88;5101392;27;45387;-82
2022/01/30 11:19:18;;;;;;;;;64.00;50.00;;;;;10.36;62.90;102693.81;5095827;27;46127;-82
2022/01/30 11:21:48;;;;;;;;;43.50;37.75;;;;;10.52;62.39;102713.31;5093750;27;45556;-81
2022/01/30 11:24:16;;;;;;;;;14.75;13.50;;;;;10.58;62.52;102712.81;5096054;27;45428;-82
2022/01/30 11:26:42;;;;;;;;;11.00;9.00;;;;;10.34;62.09;102654.25;5093969;27;46237;-83
2022/01/30 11:29:13;;;;;;;;;6.00;4.25;;;;;10.64;62.15;102699.16;5097269;27;45423;-82
2022/01/30 11:31:39;;;;;;;;;9.00;8.25;;;;;10.53;61.37;102678.31;5089767;27;45492;-81
2022/01/30 11:34:05;;;;;;;;;31.25;27.75;;;;;10.63;61.40;102692.97;5096565;27;45207;-82
2022/01/30 11:36:37;;;;;;;;;13.00;11.00;;;;;10.57;61.79;102675.09;5111010;27;48006;-82
2022/01/30 11:39:04;;;;;;;;;23.00;20.00;;;;;10.50;61.91;102651.84;5095956;27;45260;-82
2022/01/30 11:41:31;;;;;;;;;11.50;11.00;;;;;10.74;62.02;102684.09;5094229;27;45687;-82
2022/01/30 11:44:18;;;;;;;;;18.25;17.25;;;;;10.80;61.91;102680.94;5094950;27;45734;-82
2022/01/30 11:46:55;;;;;;;;;11.50;11.00;;;;;10.83;61.69;102674.13;5095428;27;45503;-82
2022/01/30 11:49:21;;;;;;;;;6.25;5.25;;;;;10.75;61.15;102659.59;5093480;27;45555;-82
2022/01/30 11:51:51;;;;;;;;;5.25;5.00;;;;;10.76;61.14;102650.91;5082458;27;45294;-82
2022/01/30 11:54:38;;;;;;;;;6.00;4.75;;;;;10.96;61.09;102662.69;5096746;27;45438;-81
2022/01/30 11:57:29;;;;;;;;;8.75;8.00;;;;;10.98;61.24;102652.25;5095310;27;46469;-82
2022/01/30 11:59:57;;;;;;;;;9.25;8.75;;;;;10.88;60.57;102618.28;5088696;27;45815;-82
2022/01/30 12:02:31;;;;;;;;;12.00;10.25;;;;;11.23;60.88;102658.28;5075654;27;45356;-82
2022/01/30 12:05:07;;;;;;;;;8.00;7.25;;;;;11.35;60.81;102651.13;5076965;27;45343;-82
2022/01/30 12:07:35;;;;;;;;;11.50;11.25;;;;;11.45;60.45;102649.97;5084951;27;46709;-82
2022/01/30 12:10:15;;;;;;;;;21.50;20.00;;;;;11.54;60.46;102642.63;5078968;27;46507;-82
2022/01/30 12:12:46;;;;;;;;;5.00;5.00;;;;;11.60;59.95;102637.75;5094939;27;45402;-82
2022/01/30 12:15:41;;;;;;;;;18.50;17.50;;;;;11.41;60.08;102587.41;5095682;27;45675;-81
2022/01/30 12:18:11;;;;;;;;;7.75;6.25;;;;;11.63;59.15;102605.44;5095099;27;46510;-82
2022/01/30 12:20:59;;;;;;;;;8.75;7.25;;;;;11.86;59.14;102627.88;5093147;27;45674;-81
2022/01/30 12:23:30;;;;;;;;;7.50;6.00;;;;;11.86;59.13;102630.53;5076159;27;45555;-81
2022/01/30 12:26:03;;;;;;;;;7.25;6.75;;;;;11.67;58.81;102601.22;5072855;28;45595;-81
2022/01/30 12:28:54;;;;;;;;;6.75;5.00;;;;;11.72;58.65;102620.84;5073125;28;47041;-81
2022/01/30 12:31:30;;;;;;;;;7.25;5.75;;;;;11.62;58.64;102619.38;5076226;27;45786;-83
2022/01/30 12:33:58;;;;;;;;;6.00;5.25;;;;;11.62;59.03;102615.06;5074796;27;45494;-84
2022/01/30 12:36:24;;;;;;;;;9.00;6.50;;;;;11.50;58.68;102593.22;5077615;27;45232;-81
2022/01/30 12:39:03;;;;;;;;;5.50;5.25;;;;;11.44;58.65;102584.06;5089606;27;46604;-79
2022/01/30 12:41:30;;;;;;;;;8.00;6.50;;;;;11.34;58.76;102583.50;5093842;27;45413;-83
2022/01/30 12:44:04;;;;;;;;;7.50;6.00;;;;;11.32;59.21;102582.47;5094347;27;45280;-80